createdAt,value
2023-08-23T00:02:02.448Z,98322.00
2023-08-23T00:06:03.771Z,98316.00
2023-08-23T00:10:05.585Z,98313.00
2023-08-23T00:14:06.818Z,98310.00
2023-08-23T00:18:07.968Z,98304.00
2023-08-23T00:22:08.996Z,98304.00
2023-08-23T00:26:11.822Z,98305.00
2023-08-23T00:30:13.440Z,98308.00
2023-08-23T00:34:14.582Z,98309.00
2023-08-23T00:38:16.179Z,98303.00
2023-08-23T00:42:17.377Z,98296.00
2023-08-23T00:46:18.891Z,98292.00
2023-08-23T00:50:21.092Z,98308.00
2023-08-23T00:54:22.173Z,98310.00
2023-08-23T00:58:23.408Z,98304.00
2023-08-23T01:02:24.639Z,98298.00
2023-08-23T01:06:32.551Z,98310.00
2023-08-23T01:10:37.538Z,98306.00
2023-08-23T01:14:57.703Z,98311.00
2023-08-23T01:19:01.883Z,98304.00
2023-08-23T01:23:14.678Z,98314.00
2023-08-23T01:27:17.312Z,98310.00
2023-08-23T01:31:21.713Z,98309.00
2023-08-23T01:35:26.567Z,98304.00
2023-08-23T01:39:27.930Z,98307.00
2023-08-23T01:43:29.151Z,98307.00
2023-08-23T01:47:30.402Z,98307.00
2023-08-23T01:51:31.555Z,98297.00
2023-08-23T01:55:32.958Z,98290.00
2023-08-23T01:59:34.127Z,98298.00
2023-08-23T02:03:35.375Z,98235.00
2023-08-23T02:07:36.520Z,98296.00
2023-08-23T02:11:38.690Z,98288.00
2023-08-23T02:15:39.792Z,98288.00
2023-08-23T02:19:40.934Z,98281.00
2023-08-23T02:23:42.161Z,98281.00
2023-08-23T02:27:43.293Z,98278.00
2023-08-23T02:31:44.520Z,98283.00
2023-08-23T02:35:47.406Z,98273.00
2023-08-23T02:39:48.466Z,98267.00
2023-08-23T02:43:49.636Z,98273.00
2023-08-23T02:47:51.118Z,98272.00
2023-08-23T02:51:53.029Z,98271.00
2023-08-23T02:55:54.094Z,98270.00
2023-08-23T02:59:55.383Z,98269.00
2023-08-23T03:03:56.417Z,98267.00
2023-08-23T03:07:57.711Z,98269.00
2023-08-23T03:11:58.990Z,98274.00
2023-08-23T03:16:00.825Z,98269.00
2023-08-23T03:20:01.999Z,98268.00
2023-08-23T03:24:03.312Z,98264.00
2023-08-23T03:28:04.757Z,98274.00
2023-08-23T03:32:06.025Z,98258.00
2023-08-23T03:36:07.079Z,98252.00
2023-08-23T03:40:08.713Z,98245.00
2023-08-23T03:44:09.684Z,98240.00
2023-08-23T03:48:10.792Z,98238.00
2023-08-23T03:52:12.058Z,98248.00
2023-08-23T03:56:13.353Z,98253.00
2023-08-23T04:00:15.128Z,98269.00
2023-08-23T04:04:16.285Z,98262.00
2023-08-23T04:08:17.608Z,98260.00
2023-08-23T04:12:18.927Z,98258.00
2023-08-23T04:16:20.132Z,98269.00
2023-08-23T04:20:21.234Z,98268.00
2023-08-23T04:24:22.399Z,98261.00
2023-08-23T04:28:23.404Z,98264.00
2023-08-23T04:32:24.711Z,98269.00
2023-08-23T04:36:25.940Z,98261.00
2023-08-23T04:40:26.957Z,98259.00
2023-08-23T04:44:29.841Z,98257.00
2023-08-23T04:48:31.049Z,98253.00
2023-08-23T04:52:32.307Z,98253.00
2023-08-23T04:56:33.412Z,98256.00
2023-08-23T05:00:34.396Z,98259.00
2023-08-23T05:04:36.421Z,98259.00
2023-08-23T05:08:37.658Z,98264.00
2023-08-23T05:12:39.821Z,98273.00
2023-08-23T05:16:40.874Z,98289.00
2023-08-23T05:20:42.006Z,98263.00
2023-08-23T05:24:43.138Z,98270.00
2023-08-23T05:28:44.989Z,98267.00
2023-08-23T05:32:46.294Z,98257.00
2023-08-23T05:36:47.368Z,98266.00
2023-08-23T05:40:48.525Z,98272.00
2023-08-23T05:44:49.850Z,98285.00
2023-08-23T05:48:50.995Z,98288.00
2023-08-23T05:52:51.979Z,98287.00
2023-08-23T05:56:53.118Z,98296.00
2023-08-23T06:00:56.023Z,98298.00
2023-08-23T06:04:57.386Z,98298.00
2023-08-23T06:08:58.731Z,98293.00
2023-08-23T06:13:00.190Z,98303.00
2023-08-23T06:17:01.455Z,98304.00
2023-08-23T06:21:02.601Z,98303.00
2023-08-23T06:25:05.618Z,98297.00
2023-08-23T06:29:06.766Z,98292.00
2023-08-23T06:33:08.664Z,98306.00
2023-08-23T06:37:09.824Z,98305.00
2023-08-23T06:41:11.050Z,98311.00
2023-08-23T06:45:12.191Z,98318.00
2023-08-23T06:49:13.134Z,98311.00
2023-08-23T06:53:14.406Z,98323.00
2023-08-23T06:57:15.418Z,98318.00
2023-08-23T07:01:16.998Z,98327.00
2023-08-23T07:05:18.120Z,98324.00
2023-08-23T07:09:19.224Z,98322.00
2023-08-23T07:13:20.368Z,98323.00
2023-08-23T07:17:21.596Z,98325.00
2023-08-23T07:21:22.756Z,98331.00
2023-08-23T07:25:23.936Z,98327.00
2023-08-23T07:29:25.192Z,98325.00
2023-08-23T07:33:27.279Z,98333.00
2023-08-23T07:37:28.279Z,98335.00
2023-08-23T07:41:29.405Z,98335.00
2023-08-23T07:45:30.552Z,98329.00
2023-08-23T07:49:31.729Z,98332.00
2023-08-23T07:53:32.873Z,98327.00
2023-08-23T07:57:34.129Z,98336.00
2023-08-23T08:01:35.298Z,98329.00
2023-08-23T08:05:37.205Z,98337.00
2023-08-23T08:09:38.183Z,98344.00
2023-08-23T08:13:39.552Z,98340.00
2023-08-23T08:17:40.871Z,98345.00
2023-08-23T08:21:42.177Z,98348.00
2023-08-23T08:25:43.544Z,98341.00
2023-08-23T08:29:44.688Z,98338.00
2023-08-23T08:33:47.361Z,98347.00
2023-08-23T08:37:48.695Z,98344.00
2023-08-23T08:41:50.263Z,98350.00
2023-08-23T08:45:51.728Z,98351.00
2023-08-23T08:49:52.958Z,98347.00
2023-08-23T08:53:55.997Z,98346.00
2023-08-23T08:57:58.954Z,98338.00
2023-08-23T09:02:02.543Z,98340.00
2023-08-23T09:06:03.937Z,98342.00
2023-08-23T09:10:05.798Z,98340.00
2023-08-23T09:14:17.597Z,98341.00
2023-08-23T09:18:20.000Z,98349.00
2023-08-23T09:22:22.165Z,98341.00
2023-08-23T09:26:25.134Z,98340.00
2023-08-23T09:30:26.490Z,98330.00
2023-08-23T09:34:27.844Z,98334.00
2023-08-23T09:38:29.412Z,98335.00
2023-08-23T09:42:32.724Z,98333.00
2023-08-23T09:46:37.699Z,98334.00
2023-08-23T09:50:39.233Z,98340.00
2023-08-23T09:55:13.727Z,98330.00
2023-08-23T09:59:03.287Z,98331.00
2023-08-23T10:03:05.192Z,98327.00
2023-08-23T10:07:08.944Z,98324.00
2023-08-23T10:11:09.990Z,98331.00
2023-08-23T10:15:13.647Z,98325.00
2023-08-23T10:19:15.058Z,98320.00
2023-08-23T10:23:17.140Z,98334.00
2023-08-23T10:27:18.490Z,98323.00
2023-08-23T10:31:29.671Z,98328.00
2023-08-23T10:35:35.819Z,98325.00
2023-08-23T10:39:36.827Z,98322.00
2023-08-23T10:43:41.805Z,98314.00
2023-08-23T10:47:43.878Z,98322.00
2023-08-23T10:51:45.638Z,98317.00
2023-08-23T10:55:47.783Z,98327.00
2023-08-23T10:59:48.926Z,98315.00
2023-08-23T11:03:50.238Z,98314.00
2023-08-23T11:07:52.399Z,98306.00
2023-08-23T11:11:54.002Z,98310.00
2023-08-23T11:15:55.701Z,98301.00
2023-08-23T11:19:57.123Z,98303.00
2023-08-23T11:24:00.058Z,98301.00
2023-08-23T11:28:01.492Z,98310.00
2023-08-23T11:32:02.821Z,98306.00
2023-08-23T11:36:04.767Z,98312.00
2023-08-23T11:40:11.348Z,98307.00
2023-08-23T11:44:13.588Z,98306.00
2023-08-23T11:48:15.859Z,98304.00
2023-08-23T11:52:17.347Z,98301.00
2023-08-23T11:56:19.775Z,98292.00
2023-08-23T12:00:22.407Z,98306.00
2023-08-23T12:04:23.505Z,98297.00
2023-08-23T12:08:24.659Z,98305.00
2023-08-23T12:12:25.815Z,98304.00
2023-08-23T12:16:27.610Z,98309.00
2023-08-23T12:20:28.692Z,98312.00
2023-08-23T12:24:30.015Z,98304.00
2023-08-23T12:28:31.057Z,98313.00
2023-08-23T12:32:32.512Z,98314.00
2023-08-23T12:36:33.716Z,98307.00
2023-08-23T12:40:34.939Z,98296.00
2023-08-23T12:44:36.312Z,98298.00
2023-08-23T12:48:37.490Z,98305.00
2023-08-23T12:52:39.447Z,98303.00
2023-08-23T12:56:40.501Z,98288.00
2023-08-23T13:00:41.524Z,98294.00
2023-08-23T13:04:43.218Z,98286.00
2023-08-23T13:08:44.402Z,98288.00
2023-08-23T13:12:45.462Z,98292.00
2023-08-23T13:16:46.663Z,98288.00
2023-08-23T13:20:47.672Z,98291.00
2023-08-23T13:24:49.876Z,98280.00
2023-08-23T13:28:50.893Z,98291.00
2023-08-23T13:32:52.666Z,98292.00
2023-08-23T13:36:53.780Z,98296.00
2023-08-23T13:40:54.833Z,98297.00
2023-08-23T13:44:55.895Z,98290.00
2023-08-23T13:48:57.423Z,98284.00
2023-08-23T13:52:58.621Z,98271.00
2023-08-23T13:56:59.743Z,98260.00
2023-08-23T14:01:01.044Z,98267.00
2023-08-23T14:05:02.325Z,98261.00
2023-08-23T14:09:03.631Z,98272.00
2023-08-23T14:13:04.944Z,98260.00
2023-08-23T14:17:06.645Z,98259.00
2023-08-23T14:21:09.350Z,98255.00
2023-08-23T14:25:10.401Z,98257.00
2023-08-23T14:29:11.847Z,98243.00
2023-08-23T14:33:13.454Z,98248.00
2023-08-23T14:37:14.627Z,98250.00
2023-08-23T14:41:15.623Z,98245.00
2023-08-23T14:45:16.781Z,98249.00
2023-08-23T14:49:17.908Z,98251.00
2023-08-23T14:53:18.884Z,98253.00
2023-08-23T14:57:21.852Z,98254.00
2023-08-23T15:01:22.972Z,98258.00
2023-08-23T15:05:24.329Z,98256.00
2023-08-23T15:09:25.361Z,98255.00
2023-08-23T15:13:26.789Z,98258.00
2023-08-23T15:17:28.154Z,98252.00
2023-08-23T15:21:29.545Z,98247.00
2023-08-23T15:25:33.561Z,98244.00
2023-08-23T15:29:39.537Z,98247.00
2023-08-23T15:33:37.411Z,98242.00
2023-08-23T15:37:38.878Z,98244.00
2023-08-23T15:41:39.886Z,98239.00
2023-08-23T15:45:40.945Z,98247.00
2023-08-23T15:49:42.162Z,98251.00
2023-08-23T15:53:43.495Z,98251.00
2023-08-23T15:57:44.557Z,98251.00
2023-08-23T16:01:45.696Z,98245.00
2023-08-23T16:05:57.039Z,98243.00
2023-08-23T16:09:58.038Z,98231.00
2023-08-23T16:13:59.071Z,98226.00
2023-08-23T16:18:00.343Z,98226.00
2023-08-23T16:22:01.456Z,98224.00
2023-08-23T16:26:02.791Z,98225.00
2023-08-23T16:30:06.636Z,98224.00
2023-08-23T16:34:07.664Z,98213.00
2023-08-23T16:38:11.157Z,98217.00
2023-08-23T16:42:12.312Z,98212.00
2023-08-23T16:46:13.377Z,98217.00
2023-08-23T16:50:14.696Z,98220.00
2023-08-23T16:54:15.907Z,98157.00
2023-08-23T16:58:16.906Z,98224.00
2023-08-23T17:02:17.875Z,98216.00
2023-08-23T17:06:19.114Z,98213.00
2023-08-23T17:10:20.236Z,98213.00
2023-08-23T17:14:21.415Z,98212.00
2023-08-23T17:18:22.383Z,98212.00
2023-08-23T17:22:23.664Z,98208.00
2023-08-23T17:26:24.677Z,98213.00
2023-08-23T17:30:25.960Z,98209.00
2023-08-23T17:34:26.970Z,98199.00
2023-08-23T17:38:28.206Z,98198.00
2023-08-23T17:42:29.459Z,98203.00
2023-08-23T17:46:38.752Z,98205.00
2023-08-23T17:50:39.919Z,98206.00
2023-08-23T17:54:41.245Z,98206.00
2023-08-23T17:58:42.297Z,98206.00
2023-08-23T18:02:43.618Z,98209.00
2023-08-23T18:06:44.954Z,98214.00
2023-08-23T18:10:46.013Z,98212.00
2023-08-23T18:14:47.084Z,98204.00
2023-08-23T18:18:48.121Z,98216.00
2023-08-23T18:22:49.425Z,98226.00
2023-08-23T18:26:50.784Z,98232.00
2023-08-23T18:30:51.850Z,98232.00
2023-08-23T18:34:52.862Z,98235.00
2023-08-23T18:38:53.978Z,98239.00
2023-08-23T18:42:55.044Z,98241.00
2023-08-23T18:46:56.282Z,98245.00
2023-08-23T18:51:03.170Z,98234.00
2023-08-23T18:55:04.778Z,98232.00
2023-08-23T18:59:05.914Z,98239.00
2023-08-23T19:03:07.064Z,98236.00
2023-08-23T19:07:08.144Z,98244.00
2023-08-23T19:11:09.200Z,98258.00
2023-08-23T19:15:10.763Z,98261.00
2023-08-23T19:19:12.071Z,98258.00
2023-08-23T19:23:13.120Z,98266.00
2023-08-23T19:27:15.257Z,98268.00
2023-08-23T19:31:16.481Z,98269.00
2023-08-23T19:35:17.659Z,98270.00
2023-08-23T19:39:19.105Z,98269.00
2023-08-23T19:43:20.281Z,98270.00
2023-08-23T19:47:21.396Z,98278.00
2023-08-23T19:51:22.377Z,98280.00
2023-08-23T19:55:24.000Z,98281.00
2023-08-23T19:59:25.215Z,98266.00
2023-08-23T20:03:27.096Z,98269.00
2023-08-23T20:07:32.104Z,98265.00
2023-08-23T20:11:33.147Z,98267.00
2023-08-23T20:15:34.299Z,98262.00
2023-08-23T20:19:35.485Z,98245.00
2023-08-23T20:23:36.657Z,98249.00
2023-08-23T20:27:37.689Z,98242.00
2023-08-23T20:31:39.165Z,98244.00
2023-08-23T20:35:40.260Z,98242.00
2023-08-23T20:39:41.539Z,98246.00
2023-08-23T20:43:42.781Z,98239.00
2023-08-23T20:47:43.987Z,98244.00
2023-08-23T20:51:45.133Z,98239.00
2023-08-23T20:55:46.224Z,98166.00
2023-08-23T20:59:47.409Z,98231.00
2023-08-23T21:03:48.773Z,98229.00
2023-08-23T21:07:50.157Z,98238.00
2023-08-23T21:11:51.364Z,98224.00
2023-08-23T21:15:53.325Z,98230.00
2023-08-23T21:19:54.399Z,98221.00
2023-08-23T21:23:55.461Z,98223.00
2023-08-23T21:27:56.788Z,98215.00
2023-08-23T21:31:58.107Z,98220.00
2023-08-23T21:35:59.252Z,98214.00
2023-08-23T21:40:00.442Z,98218.00
2023-08-23T21:44:01.752Z,98210.00
2023-08-23T21:48:03.538Z,98212.00
2023-08-23T21:52:05.097Z,98225.00
2023-08-23T21:56:06.537Z,98229.00
2023-08-23T22:00:10.092Z,98221.00
2023-08-23T22:04:11.180Z,98216.00
2023-08-23T22:08:12.173Z,98219.00
2023-08-23T22:12:13.221Z,98210.00
2023-08-23T22:16:14.554Z,98208.00
2023-08-23T22:20:15.834Z,98216.00
2023-08-23T22:24:16.975Z,98204.00
2023-08-23T22:28:18.747Z,98202.00
2023-08-23T22:32:19.912Z,98195.00
2023-08-23T22:36:20.941Z,98214.00
2023-08-23T22:40:22.316Z,98197.00
2023-08-23T22:44:23.368Z,98213.00
2023-08-23T22:48:24.384Z,98206.00
2023-08-23T22:52:25.537Z,98202.00
2023-08-23T22:56:26.666Z,98206.00
2023-08-23T23:00:27.919Z,98200.00
2023-08-23T23:04:29.066Z,98180.00
2023-08-23T23:08:30.244Z,98176.00
2023-08-23T23:12:32.970Z,98174.00
2023-08-23T23:16:34.009Z,98176.00
2023-08-23T23:20:36.098Z,98177.00
2023-08-23T23:24:38.306Z,98169.00
2023-08-23T23:28:39.652Z,98178.00
2023-08-23T23:32:40.915Z,98175.00
2023-08-23T23:36:41.874Z,98168.00
2023-08-23T23:40:43.138Z,98172.00
2023-08-23T23:44:44.121Z,98161.00
2023-08-23T23:48:45.455Z,98158.00
2023-08-23T23:52:46.492Z,98154.00
2023-08-23T23:56:48.837Z,98159.00
